Time;durP1;ratioP1;P1;durP2;ratioP2;P2;SDS_P1;SDS_P2;PMS_P1;PMS_P2;Temp;Humidity;BMP_temperature;BMP_pressure;BME280_temperature;BME280_humidity;BME280_pressure;Samples;Min_cycle;Max_cycle;Signal;HPM_P1;HPM_P2
2022/08/26 00:01:42;;;;;;;10.80;5.32;;;;;;;21.98;75.74;101241.28;3587884;39;20670;-64
2022/08/26 00:04:09;;;;;;;8.82;5.72;;;;;;;21.98;75.18;101241.28;3588681;39;20052;-64
2022/08/26 00:06:35;;;;;;;12.85;6.95;;;;;;;21.91;75.41;101242.91;3589653;39;20055;-64
2022/08/26 00:09:03;;;;;;;11.18;6.32;;;;;;;21.91;75.24;101245.66;3588066;39;21337;-64
2022/08/26 00:11:29;;;;;;;11.35;6.57;;;;;;;21.90;75.50;101243.94;3588988;39;20558;-64
2022/08/26 00:13:55;;;;;;;11.90;7.57;;;;;;;21.85;75.94;101237.22;3589291;39;20079;-64
2022/08/26 00:16:24;;;;;;;8.90;6.53;;;;;;;21.85;75.62;101249.06;3588113;39;20129;-63
2022/08/26 00:18:51;;;;;;;10.98;6.97;;;;;;;21.84;75.86;101246.47;3587513;39;20068;-63
2022/08/26 00:21:18;;;;;;;12.27;6.97;;;;;;;21.76;75.59;101244.53;3588243;39;20475;-64
2022/08/26 00:23:45;;;;;;;9.63;6.55;;;;;;;21.78;75.36;101242.47;3588594;39;20052;-64
2022/08/26 00:26:11;;;;;;;10.38;6.68;;;;;;;21.81;75.41;101258.56;3590431;39;20055;-63
2022/08/26 00:28:37;;;;;;;11.57;6.80;;;;;;;21.81;74.81;101246.78;3588248;39;20322;-63
2022/08/26 00:31:03;;;;;;;17.08;7.30;;;;;;;21.80;75.27;101254.13;3576376;39;20075;-63
2022/08/26 00:33:29;;;;;;;12.15;6.70;;;;;;;21.77;75.59;101247.09;3588866;39;20066;-64
2022/08/26 00:35:55;;;;;;;16.58;6.40;;;;;;;21.76;75.26;101250.00;3586779;39;20055;-63
2022/08/26 00:38:21;;;;;;;13.05;7.10;;;;;;;21.72;75.36;101246.69;3588311;39;20051;-64
2022/08/26 00:40:56;;;;;;;13.07;7.13;;;;;;;21.76;75.36;101255.47;3582357;39;20044;-64
2022/08/26 00:43:24;;;;;;;12.25;6.53;;;;;;;21.77;75.18;101257.19;3589380;39;20056;-64
2022/08/26 00:46:07;;;;;;;11.75;6.07;;;;;;;21.77;75.58;101254.44;3588282;39;20051;-64
2022/08/26 00:48:36;;;;;;;10.75;6.10;;;;;;;21.72;75.43;101245.84;3590760;39;20409;-64
2022/08/26 00:51:17;;;;;;;11.93;5.88;;;;;;;21.71;75.90;101246.88;3587859;39;21576;-64
2022/08/26 00:54:08;;;;;;;14.68;6.28;;;;;;;21.69;75.97;101247.03;3587323;39;20629;-64
2022/08/26 00:56:49;;;;;;;10.20;6.53;;;;;;;21.68;76.00;101248.03;3587306;39;20095;-64
2022/08/26 00:59:16;;;;;;;12.75;6.20;;;;;;;21.69;75.82;101249.78;3588721;39;20125;-64
2022/08/26 01:01:43;;;;;;;12.73;6.07;;;;;;;21.70;75.44;101248.75;3585995;39;20167;-64
2022/08/26 01:04:16;;;;;;;14.43;5.95;;;;;;;21.72;75.37;101248.56;3591059;39;20479;-64
2022/08/26 01:06:41;;;;;;;10.95;6.00;;;;;;;21.72;75.50;101251.31;3587983;39;20355;-64
2022/08/26 01:09:09;;;;;;;9.65;6.05;;;;;;;21.72;75.44;101256.78;3589670;39;20068;-64
2022/08/26 01:11:35;;;;;;;12.57;5.82;;;;;;;21.73;75.42;101258.53;3590555;39;20052;-64
2022/08/26 01:14:05;;;;;;;8.70;5.78;;;;;;;21.75;75.15;101259.22;3589984;39;20063;-64
2022/08/26 01:16:32;;;;;;;11.65;5.45;;;;;;;21.69;75.03;101244.31;3591344;39;20048;-64
2022/08/26 01:19:17;;;;;;;9.57;5.45;;;;;;;21.79;74.83;101260.63;3588697;39;20055;-64
2022/08/26 01:21:55;;;;;;;8.05;4.75;;;;;;;21.71;74.68;101242.25;3587261;39;20057;-64
2022/08/26 01:24:20;;;;;;;11.77;5.30;;;;;;;21.77;74.52;101248.97;3591654;39;20060;-64
2022/08/26 01:26:47;;;;;;;11.65;4.85;;;;;;;21.52;74.69;101210.44;3588811;39;20064;-64
2022/08/26 01:29:18;;;;;;;7.88;4.80;;;;;;;21.76;74.94;101250.84;3590714;39;20044;-64
2022/08/26 01:31:56;;;;;;;9.23;4.47;;;;;;;21.72;74.93;101251.31;3588989;39;20068;-64
2022/08/26 01:34:36;;;;;;;9.68;5.32;;;;;;;21.69;74.74;101246.16;3589752;39;20097;-64
2022/08/26 01:37:17;;;;;;;10.68;4.65;;;;;;;21.65;74.65;101236.53;3588504;39;20070;-64
2022/08/26 01:39:48;;;;;;;10.00;4.85;;;;;;;21.71;74.69;101241.41;3589478;39;20121;-63
2022/08/26 01:42:19;;;;;;;12.25;4.57;;;;;;;21.67;75.21;101245.47;3589994;39;20055;-64
2022/08/26 01:44:54;;;;;;;8.23;4.90;;;;;;;21.69;75.00;101243.41;3588523;39;20366;-63
2022/08/26 01:47:28;;;;;;;10.95;4.97;;;;;;;21.70;74.85;101250.63;3590940;39;20129;-64
2022/08/26 01:49:59;;;;;;;10.60;4.80;;;;;;;21.72;74.98;101254.03;3589886;39;20383;-64
2022/08/26 01:52:28;;;;;;;8.20;4.63;;;;;;;21.73;74.26;101251.16;3589658;39;20090;-64
2022/08/26 01:54:57;;;;;;;8.00;4.40;;;;;;;21.71;74.62;101252.34;3589051;39;20126;-64
2022/08/26 01:57:25;;;;;;;7.85;4.05;;;;;;;21.71;74.46;101255.94;3587786;39;20166;-64
2022/08/26 01:59:57;;;;;;;9.65;4.10;;;;;;;21.72;74.30;101252.16;3587529;39;20095;-64
2022/08/26 02:02:23;;;;;;;9.75;4.43;;;;;;;21.74;74.49;101257.50;3587206;39;20056;-64
2022/08/26 02:04:58;;;;;;;8.65;3.80;;;;;;;21.73;74.01;101247.56;3587111;39;20064;-64
2022/08/26 02:07:26;;;;;;;7.97;3.47;;;;;;;21.71;73.95;101258.66;3587244;39;20056;-64
2022/08/26 02:09:53;;;;;;;7.88;3.30;;;;;;;21.68;74.18;101252.66;3587849;39;20596;-64
2022/08/26 02:12:19;;;;;;;7.70;3.60;;;;;;;21.73;74.15;101266.72;3587380;39;20285;-64
2022/08/26 02:14:56;;;;;;;8.65;3.33;;;;;;;21.55;73.77;101232.00;3587638;39;20343;-64
2022/08/26 02:17:32;;;;;;;8.48;3.00;;;;;;;21.73;73.76;101266.72;3588036;39;20409;-64
2022/08/26 02:19:57;;;;;;;9.15;3.17;;;;;;;21.70;73.99;101261.56;3587303;39;20052;-64
2022/08/26 02:22:23;;;;;;;7.50;3.42;;;;;;;21.71;73.87;101268.75;3587166;39;20059;-64
2022/08/26 02:24:55;;;;;;;7.07;3.33;;;;;;;21.72;73.86;101275.94;3587406;39;20115;-64
2022/08/26 02:27:31;;;;;;;6.78;3.35;;;;;;;21.72;74.06;101270.47;3585953;39;20148;-64
2022/08/26 02:30:20;;;;;;;9.70;3.40;;;;;;;21.70;73.49;101284.31;3589862;39;20399;-64
2022/08/26 02:32:46;;;;;;;6.30;3.05;;;;;;;21.63;73.84;101285.09;3587202;39;20374;-64
2022/08/26 02:35:15;;;;;;;4.57;2.80;;;;;;;21.68;73.85;101285.47;3587025;39;20070;-64
2022/08/26 02:37:41;;;;;;;8.20;2.92;;;;;;;21.68;73.85;101290.97;3588153;39;20059;-64
2022/08/26 02:40:11;;;;;;;7.90;2.97;;;;;;;21.67;73.89;101292.84;3588613;39;20375;-64
2022/08/26 02:42:37;;;;;;;7.53;2.90;;;;;;;21.63;74.06;101285.09;3590043;39;20060;-64
2022/08/26 02:45:04;;;;;;;5.80;2.90;;;;;;;21.61;73.66;101287.13;3588338;39;20062;-64
2022/08/26 02:47:32;;;;;;;5.38;2.88;;;;;;;21.55;74.11;101283.13;3581466;39;20409;-64
2022/08/26 02:49:59;;;;;;;7.95;2.83;;;;;;;21.51;73.76;101276.25;3590192;39;20056;-64
2022/08/26 02:52:25;;;;;;;7.45;3.10;;;;;;;21.49;74.05;101279.13;3587481;39;20128;-62
2022/08/26 02:54:51;;;;;;;10.93;3.40;;;;;;;21.47;74.15;101277.56;3586122;39;20060;-61
2022/08/26 02:57:18;;;;;;;6.72;2.75;;;;;;;21.42;74.39;101282.66;3587378;39;20051;-62
2022/08/26 02:59:44;;;;;;;7.47;2.70;;;;;;;21.43;74.52;101287.97;3587932;39;20092;-62
2022/08/26 03:02:10;;;;;;;7.85;3.20;;;;;;;21.43;74.77;101290.69;3585419;39;20054;-63
2022/08/26 03:04:38;;;;;;;7.65;2.78;;;;;;;21.41;74.40;101284.53;3586096;39;20068;-63
2022/08/26 03:07:05;;;;;;;5.68;3.15;;;;;;;21.41;74.36;101284.53;3587163;39;20075;-62
2022/08/26 03:09:31;;;;;;;9.52;3.45;;;;;;;21.14;74.83;101229.84;3586317;39;20482;-63
2022/08/26 03:11:58;;;;;;;5.78;2.92;;;;;;;21.40;74.92;101276.47;3587571;39;20068;-62
2022/08/26 03:14:25;;;;;;;6.10;3.17;;;;;;;21.36;74.71;101281.41;3585686;39;20151;-62
2022/08/26 03:16:53;;;;;;;7.60;3.80;;;;;;;21.40;74.79;101281.94;3590566;39;20078;-62
2022/08/26 03:19:23;;;;;;;10.98;3.28;;;;;;;21.39;75.23;101275.63;3587073;39;20402;-62
2022/08/26 03:21:51;;;;;;;10.73;3.65;;;;;;;21.18;75.42;101250.38;3587711;39;20105;-62
2022/08/26 03:24:18;;;;;;;10.65;3.67;;;;;;;21.31;75.45;101273.63;3588076;39;20057;-62
2022/08/26 03:26:44;;;;;;;6.10;3.45;;;;;;;21.36;75.39;101280.53;3587850;39;20047;-62
2022/08/26 03:31:55;;;;;;;6.38;3.70;;;;;;;21.36;75.38;101284.13;3587820;39;20099;-62
2022/08/26 03:34:21;;;;;;;7.50;3.28;;;;;;;21.37;74.98;101288.56;3587364;39;20062;-62
2022/08/26 03:36:47;;;;;;;11.27;3.05;;;;;;;21.36;74.88;101278.66;3591761;39;20051;-62
2022/08/26 03:39:13;;;;;;;7.45;2.92;;;;;;;21.38;75.27;101287.59;3588913;39;20146;-62
2022/08/26 03:41:40;;;;;;;8.13;3.42;;;;;;;21.36;75.08;101275.94;3589757;39;20087;-63
2022/08/26 03:44:10;;;;;;;8.18;2.90;;;;;;;21.39;75.09;101286.56;3589911;39;20068;-63
2022/08/26 03:46:37;;;;;;;6.28;3.15;;;;;;;21.41;74.77;101289.13;3587309;39;20054;-62
2022/08/26 03:49:04;;;;;;;7.43;2.80;;;;;;;21.41;74.53;101295.47;3590451;39;20926;-62
2022/08/26 03:51:32;;;;;;;5.55;3.05;;;;;;;21.42;74.33;101286.25;3587681;39;20079;-62
2022/08/26 03:53:59;;;;;;;7.60;2.88;;;;;;;21.40;74.76;101292.88;3590268;39;20416;-63
2022/08/26 03:56:26;;;;;;;6.30;2.65;;;;;;;21.38;74.35;101287.59;3590007;39;20322;-63
2022/08/26 03:58:53;;;;;;;7.22;2.88;;;;;;;21.38;74.45;101290.31;3590980;39;20068;-63
2022/08/26 04:01:18;;;;;;;7.78;2.80;;;;;;;21.38;74.78;101293.06;3587912;39;20058;-62
2022/08/26 04:03:56;;;;;;;7.55;2.97;;;;;;;21.36;74.55;101297.81;3589514;39;20295;-62
2022/08/26 04:06:35;;;;;;;7.70;2.97;;;;;;;21.33;74.32;101293.47;3591038;39;20052;-62
2022/08/26 04:09:10;;;;;;;7.68;2.45;;;;;;;21.45;74.20;101296.88;3589550;39;20120;-62
2022/08/26 04:11:38;;;;;;;6.40;2.60;;;;;;;21.42;73.76;101280.78;3590327;39;20058;-62
2022/08/26 04:14:13;;;;;;;6.13;2.65;;;;;;;21.53;73.70;101288.78;3589518;39;20052;-62
2022/08/26 04:16:41;;;;;;;6.55;2.63;;;;;;;21.61;73.34;101296.19;3589251;39;20367;-62
2022/08/26 04:19:08;;;;;;;8.48;2.70;;;;;;;21.64;73.88;101287.69;3588954;39;20040;-62
2022/08/26 04:21:37;;;;;;;5.85;2.53;;;;;;;21.66;73.15;101287.50;3588541;39;20081;-62
2022/08/26 04:24:04;;;;;;;8.48;2.70;;;;;;;21.59;73.29;101275.47;3587771;39;20060;-62
2022/08/26 04:26:36;;;;;;;4.10;2.13;;;;;;;21.63;73.21;101290.56;3587217;39;20496;-62
2022/08/26 04:29:11;;;;;;;4.88;2.60;;;;;;;21.42;73.17;101260.78;3589097;39;20109;-62
2022/08/26 04:31:37;;;;;;;8.63;2.90;;;;;;;21.61;73.13;101288.00;3586349;39;20102;-63
2022/08/26 04:34:04;;;;;;;6.97;2.50;;;;;;;21.45;73.73;101263.19;3587257;39;20056;-62
2022/08/26 04:36:30;;;;;;;8.02;2.60;;;;;;;21.50;73.87;101286.34;3588321;39;20056;-63
2022/08/26 04:39:00;;;;;;;5.78;2.55;;;;;;;21.50;73.70;101282.72;3587664;39;20096;-62
2022/08/26 04:41:26;;;;;;;7.03;2.70;;;;;;;21.50;73.76;101286.34;3588320;39;20114;-62
2022/08/26 04:43:52;;;;;;;5.88;2.53;;;;;;;21.32;73.88;101260.81;3588406;39;20055;-62
2022/08/26 04:46:22;;;;;;;7.63;2.50;;;;;;;21.47;73.82;101286.66;3587427;39;20055;-63
2022/08/26 04:48:50;;;;;;;7.28;2.53;;;;;;;21.31;74.20;101278.22;3590286;39;20051;-62
2022/08/26 04:51:18;;;;;;;6.43;2.22;;;;;;;21.44;73.86;101300.66;3588736;39;20056;-62
2022/08/26 04:53:44;;;;;;;6.50;2.35;;;;;;;21.39;74.06;101292.03;3588250;39;20145;-62
2022/08/26 04:56:10;;;;;;;5.05;2.17;;;;;;;21.16;73.61;101252.44;3589066;39;20054;-63
2022/08/26 04:58:36;;;;;;;5.85;2.00;;;;;;;21.42;73.73;101301.81;3588760;39;20326;-62
2022/08/26 05:01:03;;;;;;;6.00;2.13;;;;;;;21.42;73.77;101288.13;3590420;39;20058;-63
2022/08/26 05:03:29;;;;;;;7.03;2.03;;;;;;;21.43;73.49;101282.50;3586989;39;20048;-62
2022/08/26 05:05:55;;;;;;;5.68;1.90;;;;;;;21.52;73.94;101299.84;3581934;39;21160;-62
2022/08/26 05:08:23;;;;;;;9.63;2.55;;;;;;;21.52;73.10;101306.19;3588650;39;20056;-62
2022/08/26 05:10:54;;;;;;;7.30;2.47;;;;;;;21.54;73.07;101306.91;3589000;39;20434;-62
2022/08/26 05:13:23;;;;;;;5.70;1.88;;;;;;;21.56;73.46;101304.00;3588702;39;20132;-62
2022/08/26 05:15:50;;;;;;;8.60;2.20;;;;;;;21.58;73.11;101301.13;3592100;39;20116;-62
2022/08/26 05:18:20;;;;;;;6.18;1.65;;;;;;;21.53;73.03;101305.19;3590751;39;20085;-63
2022/08/26 05:20:50;;;;;;;5.70;2.28;;;;;;;21.52;73.35;101308.91;3591522;39;20060;-62
2022/08/26 05:23:17;;;;;;;2.97;1.90;;;;;;;21.51;73.33;101307.22;3590415;39;20102;-62
2022/08/26 05:25:46;;;;;;;5.15;1.95;;;;;;;21.53;72.93;101307.94;3591366;39;20134;-62
2022/08/26 05:28:15;;;;;;;7.95;2.55;;;;;;;21.53;73.60;101301.56;3589077;39;20083;-62
2022/08/26 05:30:41;;;;;;;5.10;1.55;;;;;;;21.53;73.52;101299.72;3586944;39;20377;-62
2022/08/26 05:33:08;;;;;;;7.15;2.00;;;;;;;21.55;72.97;101300.41;3577546;40;20051;-63
2022/08/26 05:35:37;;;;;;;5.50;1.98;;;;;;;21.40;72.88;101277.31;3587332;39;20064;-62
2022/08/26 05:38:07;;;;;;;7.43;2.20;;;;;;;21.58;73.30;101312.91;3590461;39;20401;-62
2022/08/26 05:40:36;;;;;;;4.68;1.85;;;;;;;21.61;73.12;101307.16;3590942;39;20405;-62
2022/08/26 05:43:09;;;;;;;6.85;2.45;;;;;;;21.64;73.02;101308.72;3591014;39;20056;-61
2022/08/26 05:45:37;;;;;;;9.50;2.42;;;;;;;21.63;73.21;101305.13;3587157;39;20089;-62
2022/08/26 05:48:07;;;;;;;9.00;2.22;;;;;;;21.59;73.44;101313.78;3589256;39;20054;-62
2022/08/26 05:50:42;;;;;;;5.45;1.95;;;;;;;21.69;72.55;101322.78;3587543;39;20059;-62
2022/08/26 05:53:10;;;;;;;5.43;2.00;;;;;;;21.74;72.66;101331.38;3587556;39;20096;-63
2022/08/26 05:55:50;;;;;;;5.97;1.70;;;;;;;21.75;72.71;101324.88;3587021;39;20095;-62
2022/08/26 05:58:19;;;;;;;7.43;2.03;;;;;;;21.79;72.50;101332.66;3589093;39;20047;-62
2022/08/26 06:00:59;;;;;;;7.32;2.00;;;;;;;21.83;72.56;101337.81;3587145;39;20314;-64
2022/08/26 06:03:26;;;;;;;7.60;1.73;;;;;;;21.77;72.71;101334.66;3586762;39;20070;-64
2022/08/26 06:05:52;;;;;;;5.32;1.90;;;;;;;21.74;72.75;101334.97;3587075;39;20055;-65
2022/08/26 06:08:20;;;;;;;6.22;1.75;;;;;;;21.75;72.46;101344.03;3587864;39;20105;-65
2022/08/26 06:10:52;;;;;;;6.35;1.75;;;;;;;21.75;72.36;101352.25;3586620;39;20041;-64
2022/08/26 06:13:25;;;;;;;7.05;2.10;;;;;;;21.74;72.42;101351.41;3589932;39;20064;-66
2022/08/26 06:15:53;;;;;;;6.18;1.75;;;;;;;21.75;72.48;101347.63;3589675;39;20049;-65
2022/08/26 06:18:33;;;;;;;9.02;2.17;;;;;;;21.77;72.29;101350.22;3589111;39;20398;-65
2022/08/26 06:21:10;;;;;;;6.97;1.55;;;;;;;21.71;72.27;101339.91;3585941;39;20355;-65
2022/08/26 06:26:20;;;;;;;3.63;1.48;;;;;;;21.83;72.18;101357.81;3585940;39;20380;-65
2022/08/26 06:28:46;;;;;;;7.07;1.70;;;;;;;21.86;71.83;101357.50;3585989;39;20052;-65
2022/08/26 06:31:14;;;;;;;4.00;1.70;;;;;;;21.80;71.61;101349.94;3587352;39;20400;-65
2022/08/26 06:33:40;;;;;;;6.70;1.48;;;;;;;21.72;71.72;101336.13;3585987;39;20306;-65
2022/08/26 06:36:06;;;;;;;3.28;1.27;;;;;;;21.86;71.54;101365.72;3588393;39;20070;-64
2022/08/26 06:38:32;;;;;;;5.97;1.55;;;;;;;21.89;71.45;101359.94;3585841;39;20382;-64
2022/08/26 06:40:57;;;;;;;5.45;1.77;;;;;;;21.95;70.99;101363.94;3589056;39;20084;-65
2022/08/26 06:43:27;;;;;;;7.28;2.00;;;;;;;21.82;71.20;101341.53;3587292;39;20120;-64
2022/08/26 06:46:02;;;;;;;3.40;1.42;;;;;;;21.85;71.63;101350.34;3587847;39;20053;-64
2022/08/26 06:48:28;;;;;;;4.72;1.67;;;;;;;21.97;71.30;101368.22;3586687;39;20059;-65
2022/08/26 06:51:20;;;;;;;3.80;1.35;;;;;;;21.98;70.89;101375.44;3588106;39;20084;-65
2022/08/26 06:53:50;;;;;;;4.45;1.40;;;;;;;21.65;71.24;101318.63;3579731;39;20313;-65
2022/08/26 06:56:22;;;;;;;5.18;1.65;;;;;;;21.99;70.66;101371.66;3585649;39;20063;-65
2022/08/26 06:58:48;;;;;;;3.83;1.48;;;;;;;22.00;70.82;101375.28;3586097;39;20048;-64
2022/08/26 07:01:23;;;;;;;4.13;1.30;;;;;;;22.03;70.32;101377.69;3585961;39;20329;-64
2022/08/26 07:03:53;;;;;;;3.85;1.50;;;;;;;22.02;70.85;101376.84;3587030;39;20058;-63
2022/08/26 07:06:20;;;;;;;6.63;1.75;;;;;;;22.01;71.04;101380.59;3587436;39;20275;-63
2022/08/26 07:08:47;;;;;;;3.28;1.50;;;;;;;22.01;70.63;101380.59;3587696;39;20048;-65
2022/08/26 07:11:15;;;;;;;5.93;1.77;;;;;;;22.07;70.44;101372.75;3583629;39;20115;-64
2022/08/26 07:13:42;;;;;;;4.28;1.77;;;;;;;22.09;70.52;101373.47;3585504;39;20047;-64
2022/08/26 07:16:11;;;;;;;3.35;1.60;;;;;;;22.15;70.47;101368.22;3587389;39;20059;-64
2022/08/26 07:18:40;;;;;;;5.88;1.45;;;;;;;21.99;70.18;101347.03;3589472;39;20044;-64
2022/08/26 07:21:11;;;;;;;4.03;1.35;;;;;;;22.22;69.91;101371.22;3585492;39;20066;-64
2022/08/26 07:23:37;;;;;;;6.13;1.38;;;;;;;22.06;69.80;101343.66;3588605;39;20087;-64
2022/08/26 07:26:11;;;;;;;6.10;1.60;;;;;;;22.39;68.81;101381.31;3588549;39;20353;-64
2022/08/26 07:28:37;;;;;;;4.72;1.50;;;;;;;22.45;68.49;101377.94;3581325;39;20060;-64
2022/08/26 07:31:07;;;;;;;4.35;1.40;;;;;;;22.53;68.59;101379.03;3587706;39;20125;-64
2022/08/26 07:33:34;;;;;;;5.82;1.60;;;;;;;22.58;67.35;101377.53;3584596;39;20291;-65
2022/08/26 07:36:01;;;;;;;6.00;1.30;;;;;;;22.63;67.78;101388.00;3587992;39;20079;-64
2022/08/26 07:38:27;;;;;;;5.03;1.52;;;;;;;22.69;67.50;101376.41;3585715;39;20107;-64
2022/08/26 07:40:53;;;;;;;5.63;1.48;;;;;;;22.80;67.69;101380.75;3587646;39;20066;-64
2022/08/26 07:43:21;;;;;;;4.35;1.40;;;;;;;22.92;66.17;101387.69;3585463;39;20149;-64
2022/08/26 07:45:46;;;;;;;4.15;1.00;;;;;;;22.98;65.72;101395.31;3575010;39;20088;-64
2022/08/26 07:48:12;;;;;;;7.15;1.58;;;;;;;23.03;66.23;101392.09;3585400;39;20479;-63
2022/08/26 07:50:40;;;;;;;5.70;1.70;;;;;;;23.09;65.92;101395.03;3587563;39;20335;-64
2022/08/26 07:53:05;;;;;;;7.20;1.40;;;;;;;23.07;65.30;101383.34;3588646;39;21721;-64
2022/08/26 07:55:31;;;;;;;5.15;1.48;;;;;;;23.17;64.97;101388.72;3589289;39;20052;-63
2022/08/26 07:57:57;;;;;;;3.55;1.10;;;;;;;23.17;64.79;101397.81;3587796;39;20052;-64
2022/08/26 08:00:23;;;;;;;6.93;1.80;;;;;;;23.19;64.53;101411.38;3589245;39;20070;-64
2022/08/26 08:02:50;;;;;;;8.95;1.73;;;;;;;23.19;64.68;101403.16;3587334;39;20117;-63
2022/08/26 08:05:20;;;;;;;4.63;1.20;;;;;;;23.16;64.51;101397.97;3586091;39;20165;-63
2022/08/26 08:07:47;;;;;;;6.15;1.52;;;;;;;23.26;64.22;101406.94;3577323;39;20064;-63
2022/08/26 08:10:24;;;;;;;7.88;1.58;;;;;;;23.29;64.51;101416.75;3587306;39;20160;-63
2022/08/26 08:12:50;;;;;;;4.78;1.80;;;;;;;23.30;63.98;101411.06;3587221;39;20044;-63
2022/08/26 08:15:20;;;;;;;5.57;1.95;;;;;;;23.30;64.09;101416.56;3587763;39;20092;-64
2022/08/26 08:17:46;;;;;;;3.47;1.73;;;;;;;23.15;63.07;101388.00;3590064;39;20461;-63
2022/08/26 08:20:13;;;;;;;5.30;1.50;;;;;;;23.30;63.20;101416.56;3586168;39;20109;-64
2022/08/26 08:22:39;;;;;;;6.30;1.58;;;;;;;23.32;62.80;101413.66;3587300;39;20101;-66
2022/08/26 08:25:06;;;;;;;4.45;1.40;;;;;;;23.37;62.64;101411.28;3586122;39;20072;-65
2022/08/26 08:27:37;;;;;;;4.28;1.20;;;;;;;23.41;61.99;101407.19;3590061;39;20054;-65
2022/08/26 08:30:06;;;;;;;5.25;1.20;;;;;;;23.45;61.83;101404.97;3585099;39;20130;-63
2022/08/26 08:32:32;;;;;;;6.57;1.77;;;;;;;23.43;61.91;101421.59;3588795;39;20052;-63
2022/08/26 08:34:58;;;;;;;4.03;1.48;;;;;;;23.45;61.41;101414.06;3587177;39;20125;-63
2022/08/26 08:37:25;;;;;;;4.80;1.52;;;;;;;23.42;61.43;101410.78;3589934;39;20064;-64
2022/08/26 08:39:50;;;;;;;3.17;1.17;;;;;;;23.37;61.53;101414.91;3591446;39;20105;-63
2022/08/26 08:42:45;;;;;;;2.92;1.35;;;;;;;23.38;61.12;101415.75;3587609;39;20052;-65
2022/08/26 08:45:37;;;;;;;6.07;1.27;;;;;;;23.43;61.04;101415.25;3591044;39;20483;-63
2022/08/26 08:48:25;;;;;;;4.80;1.60;;;;;;;23.42;61.31;101413.53;3585896;39;20096;-63
2022/08/26 08:51:21;;;;;;;7.57;1.30;;;;;;;23.43;61.48;101416.09;3587952;39;20052;-63
2022/08/26 08:53:53;;;;;;;3.80;1.20;;;;;;;23.40;61.26;101406.31;3573211;39;20059;-63
2022/08/26 08:56:35;;;;;;;5.25;1.20;;;;;;;23.47;61.96;101419.38;3587041;39;20145;-63
2022/08/26 08:59:19;;;;;;;6.25;1.63;;;;;;;23.45;61.23;101419.56;3587402;39;20055;-63
2022/08/26 09:02:22;;;;;;;;;;;;;;;23.47;60.84;101417.53;3589168;39;20395;-63
2022/08/26 09:05:19;;;;;;;4.37;1.53;;;;;;;23.43;61.20;101424.34;3574382;39;20322;-63
2022/08/26 09:08:10;;;;;;;4.43;1.13;;;;;;;23.41;61.35;101429.16;3589535;39;20270;-64
2022/08/26 09:10:46;;;;;;;3.72;1.33;;;;;;;23.41;61.37;101423.66;3588297;39;20132;-64
2022/08/26 09:13:16;;;;;;;4.80;1.40;;;;;;;23.39;61.23;101423.81;3587367;39;20057;-65
2022/08/26 09:16:02;;;;;;;4.50;1.23;;;;;;;23.43;61.18;101420.75;3587768;39;20064;-64
2022/08/26 09:18:53;;;;;;;3.72;1.33;;;;;;;23.49;62.18;101423.69;3586878;39;20052;-64
2022/08/26 09:21:22;;;;;;;7.30;1.42;;;;;;;23.59;61.25;101423.56;3587498;39;20063;-64
2022/08/26 09:23:49;;;;;;;5.05;1.40;;;;;;;23.65;60.97;101420.13;3587895;39;20051;-64
2022/08/26 09:26:19;;;;;;;3.95;1.27;;;;;;;23.75;60.82;101426.38;3586239;39;20107;-64
2022/08/26 09:28:54;;;;;;;8.40;1.60;;;;;;;23.79;60.15;101432.44;3586042;39;20052;-64
2022/08/26 09:31:36;;;;;;;8.23;1.70;;;;;;;23.81;60.24;101436.69;3588706;39;20733;-63
2022/08/26 09:34:12;;;;;;;5.65;2.08;;;;;;;23.84;59.95;101435.50;3587274;39;20317;-63
2022/08/26 09:36:47;;;;;;;5.38;1.50;;;;;;;23.63;60.17;101400.25;3590452;39;20052;-63
2022/08/26 09:39:37;;;;;;;7.63;2.15;;;;;;;23.83;59.91;101434.66;3588211;39;20239;-64
2022/08/26 09:42:18;;;;;;;3.85;1.55;;;;;;;22.70;59.40;101249.28;3589521;39;20061;-63
2022/08/26 09:45:00;;;;;;;5.18;1.80;;;;;;;23.84;59.97;101439.13;3588521;39;20056;-63
2022/08/26 09:47:51;;;;;;;9.55;1.55;;;;;;;23.84;59.63;101441.00;3588833;39;20059;-63
2022/08/26 09:50:58;;;;;;;7.57;1.40;;;;;;;23.79;59.91;101438.78;3591067;39;20306;-64
2022/08/26 09:53:30;;;;;;;5.88;1.33;;;;;;;23.78;60.11;101439.78;3588264;39;20055;-63
2022/08/26 09:56:22;;;;;;;3.83;1.52;;;;;;;23.77;60.43;101438.06;3590020;39;20310;-63
2022/08/26 09:58:48;;;;;;;5.25;1.40;;;;;;;23.81;59.64;101444.09;3589327;39;20138;-64
2022/08/26 10:01:34;;;;;;;5.80;1.70;;;;;;;23.79;60.75;101436.03;3589908;39;20445;-64
2022/08/26 10:04:12;;;;;;;5.70;1.77;;;;;;;23.79;60.06;101444.25;3592935;39;20325;-64
2022/08/26 10:07:02;;;;;;;5.15;1.98;;;;;;;23.79;60.27;101447.00;3591202;39;20084;-64
2022/08/26 10:09:38;;;;;;;3.83;1.23;;;;;;;23.82;59.92;101448.56;3592673;39;20056;-64
2022/08/26 10:12:20;;;;;;;5.63;1.35;;;;;;;23.82;60.24;101446.69;3587421;39;20083;-64
2022/08/26 10:14:58;;;;;;;6.72;1.45;;;;;;;23.82;59.41;101443.94;3593740;39;20342;-64
2022/08/26 10:17:23;;;;;;;4.60;1.25;;;;;;;23.83;59.27;101436.56;3592027;39;20067;-64
2022/08/26 10:20:14;;;;;;;5.88;1.30;;;;;;;23.84;59.27;101441.00;3591308;39;20354;-64
2022/08/26 10:22:48;;;;;;;3.45;1.45;;;;;;;23.93;59.48;101442.75;3590592;39;20052;-64
2022/08/26 10:25:27;;;;;;;7.25;1.52;;;;;;;23.74;58.85;101388.97;3578016;39;20066;-64
2022/08/26 10:28:01;;;;;;;9.40;2.13;;;;;;;24.08;57.93;101429.25;3589816;39;20123;-64
2022/08/26 10:30:44;;;;;;;4.60;1.52;;;;;;;24.12;58.32;101433.34;3591113;39;20056;-64
2022/08/26 10:33:17;;;;;;;5.20;1.45;;;;;;;24.18;57.95;101440.06;3588490;39;20048;-64
2022/08/26 10:35:58;;;;;;;6.45;1.20;;;;;;;24.21;57.87;101434.25;3587361;39;20051;-64
2022/08/26 10:38:33;;;;;;;2.92;1.30;;;;;;;24.20;57.81;101432.50;3593127;39;20360;-64
2022/08/26 10:41:15;;;;;;;5.30;1.65;;;;;;;24.14;58.04;101424.97;3593659;39;20065;-64
2022/08/26 10:43:59;;;;;;;8.50;1.63;;;;;;;24.08;58.46;101429.25;3589682;39;20090;-64
2022/08/26 10:46:41;;;;;;;6.97;1.70;;;;;;;24.04;58.30;101436.06;3592621;39;20056;-64
2022/08/26 10:49:16;;;;;;;8.23;2.13;;;;;;;23.84;57.89;101408.91;3588404;39;20068;-64
2022/08/26 10:52:01;;;;;;;5.53;1.38;;;;;;;23.95;58.72;101437.09;3587784;39;20044;-64
2022/08/26 10:54:58;;;;;;;6.30;1.77;;;;;;;23.79;58.29;101415.94;3588756;39;20052;-64
2022/08/26 10:57:51;;;;;;;5.93;1.48;;;;;;;23.79;58.39;101436.03;3588686;39;20056;-64
2022/08/26 11:03:46;;;;;;;6.32;1.30;;;;;;;23.74;58.36;101441.16;3589397;39;20402;-62
2022/08/26 11:06:26;;;;;;;4.28;1.35;;;;;;;23.76;58.27;101439.09;3579964;40;20044;-63
2022/08/26 11:08:56;;;;;;;3.25;1.30;;;;;;;23.44;58.29;101395.00;3588269;39;20039;-62
2022/08/26 11:11:40;;;;;;;5.97;1.35;;;;;;;23.63;58.31;101435.94;3587841;39;20313;-63
2022/08/26 11:14:18;;;;;;;4.30;1.60;;;;;;;23.55;58.51;101436.75;3588940;39;20052;-63
2022/08/26 11:16:48;;;;;;;7.05;1.00;;;;;;;23.30;58.97;101402.00;3589339;39;20273;-63
2022/08/26 11:19:39;;;;;;;8.63;1.65;;;;;;;23.49;58.25;101448.38;3590812;39;20047;-63
2022/08/26 11:22:24;;;;;;;7.47;1.30;;;;;;;23.44;58.94;101444.41;3589131;39;20079;-63
2022/08/26 11:24:55;;;;;;;6.70;1.73;;;;;;;23.37;58.62;101438.72;3589556;39;20060;-62
2022/08/26 11:27:36;;;;;;;4.43;1.42;;;;;;;23.32;59.13;101441.09;3588567;39;20067;-63
2022/08/26 11:30:18;;;;;;;5.85;1.48;;;;;;;23.13;59.61;101407.38;3590016;39;20051;-62
2022/08/26 11:32:56;;;;;;;4.65;1.42;;;;;;;23.29;59.42;101434.06;3590516;39;20059;-63
2022/08/26 11:35:24;;;;;;;5.70;1.30;;;;;;;23.31;59.90;101433.88;3579428;40;20314;-65
2022/08/26 11:37:57;;;;;;;6.80;1.42;;;;;;;23.31;60.42;101440.25;3588741;39;20491;-63
2022/08/26 11:40:29;;;;;;;4.07;1.33;;;;;;;23.32;59.87;101441.09;3590227;39;20059;-63
2022/08/26 11:43:01;;;;;;;5.63;1.35;;;;;;;23.15;60.07;101434.66;3589867;39;20075;-63
2022/08/26 11:45:36;;;;;;;2.90;1.13;;;;;;;23.23;60.10;101445.69;3590123;39;20426;-63
2022/08/26 11:48:29;;;;;;;2.70;0.90;;;;;;;23.20;59.79;101448.75;3588588;39;20064;-63
2022/08/26 11:51:20;;;;;;;4.90;1.40;;;;;;;23.14;59.98;101438.41;3588613;39;20075;-63
2022/08/26 11:53:45;;;;;;;3.88;1.55;;;;;;;23.14;60.62;101446.66;3586554;39;20068;-62
2022/08/26 11:56:28;;;;;;;5.55;1.30;;;;;;;23.11;60.78;101445.09;3589362;39;20055;-63